Taganrogskiy Zaliv — 9HA2995 — position and weather

sailwx.info

Track history (hours):
 
Tides and Currents Weather Stations Pressure Air Temp Water Temp Dewpoint Dewpoint Depression Visibility Wind Speed Wind Dir Waves Ship Positions

Taganrogskiy Zaliv

Last reported at 2018-Jan-21 22:29 UTC. Time now 2018-Jan-21 22:44 UTC.
Position N 37°28' E 024°21'.

Length 128 m; draft 4.3 m.

Type: Ship. MMSI: 229019000.

Date/timePositionNaut miles runAvg speedWind from/ knotsBaromVisibWave heightAir tempDewpointWater temp
2018-Jan-21 22:29N 37°28' E 024°21'4 9.0
2018-Jan-21 22:00N 37°25' E 024°17'5 9.2
2018-Jan-21 21:30N 37°21' E 024°13'5 9.1
2018-Jan-21 21:00N 37°18' E 024°10'5 9.0
2018-Jan-21 20:30N 37°14' E 024°06'4 8.8
2018-Jan-21 20:00N 37°11' E 024°02'4 8.8
2018-Jan-21 19:30N 37°08' E 023°59'5 9.1
2018-Jan-21 19:00N 37°04' E 023°55'5 9.2
2018-Jan-21 18:30N 37°01' E 023°51'5 9.1
2018-Jan-21 18:00N 36°58' E 023°47'5 9.2
2018-Jan-21 17:25N 36°54' E 023°42'375 8.2
2018-Jan-19 19:31N 37°50' E 015°56'10 8.8
2018-Jan-19 18:21N 37°54' E 015°44'4 8.6
2018-Jan-19 17:56N 37°55' E 015°40'4 8.9
2018-Jan-19 17:29N 37°58' E 015°36'5 9.9
2018-Jan-19 16:57N 38°03' E 015°35'611.0
2018-Jan-19 16:27N 38°08' E 015°35'511.1
2018-Jan-19 16:01N 38°13' E 015°36'4 7.6
2018-Jan-19 15:29N 38°17' E 015°39'4 8.8
2018-Jan-19 15:00N 38°19' E 015°35'4 8.4
2018-Jan-19 14:31N 38°19' E 015°30'4 8.6
2018-Jan-19 14:00N 38°19' E 015°24'4 9.0
2018-Jan-19 13:31N 38°19' E 015°18'5 9.2
2018-Jan-19 13:01N 38°19' E 015°12'5 9.1
2018-Jan-19 12:31N 38°19' E 015°07'5 9.4
2018-Jan-19 11:59N 38°19' E 015°00'4 9.1
2018-Jan-19 11:30N 38°19' E 014°55'4 8.9
2018-Jan-19 11:01N 38°18' E 014°49'34 9.2
2018-Jan-19 07:18N 38°18' E 014°06'5 9.3
2018-Jan-19 06:46N 38°18' E 013°59'2 9.5
2018-Jan-19 06:30N 38°18' E 013°56'5 9.4
2018-Jan-19 05:57N 38°18' E 013°50'4 9.3
2018-Jan-19 05:30N 38°19' E 013°44'5 9.3
2018-Jan-19 05:00N 38°19' E 013°38'5 9.4
2018-Jan-19 04:30N 38°19' E 013°32'5 9.4
2018-Jan-19 04:00N 38°20' E 013°26'5 9.3
2018-Jan-19 03:30N 38°20' E 013°20'5 9.4
2018-Jan-19 03:00N 38°21' E 013°15'5 9.1
2018-Jan-19 02:30N 38°21' E 013°09'4 8.9
2018-Jan-19 02:00N 38°22' E 013°03'4 8.7
2018-Jan-19 01:30N 38°22' E 012°58'197 8.7
2018-Jan-18 02:56N 38°46' E 008°47'  
Track history (hours):
 
Tides and Currents Weather Stations Pressure Air Temp Water Temp Dewpoint Dewpoint Depression Visibility Wind Speed Wind Dir Waves Ship Positions

Taganrogskiy Zaliv

Last reported at 2018-Jan-21 22:29 UTC. Time now 2018-Jan-21 22:44 UTC.
Position N 37°28' E 024°21'.

Length 128 m; draft 4.3 m.

Type: Ship. MMSI: 229019000.

Date/timePositionNaut miles runAvg speedWind from/ knotsBaromVisibWave heightAir tempDewpointWater temp
2018-Jan-21 22:29N 37°28' E 024°21'4 9.0
2018-Jan-21 22:00N 37°25' E 024°17'5 9.2
2018-Jan-21 21:30N 37°21' E 024°13'5 9.1
2018-Jan-21 21:00N 37°18' E 024°10'5 9.0
2018-Jan-21 20:30N 37°14' E 024°06'4 8.8
2018-Jan-21 20:00N 37°11' E 024°02'4 8.8
2018-Jan-21 19:30N 37°08' E 023°59'5 9.1
2018-Jan-21 19:00N 37°04' E 023°55'5 9.2
2018-Jan-21 18:30N 37°01' E 023°51'5 9.1
2018-Jan-21 18:00N 36°58' E 023°47'5 9.2
2018-Jan-21 17:25N 36°54' E 023°42'375 8.2
2018-Jan-19 19:31N 37°50' E 015°56'10 8.8
2018-Jan-19 18:21N 37°54' E 015°44'4 8.6
2018-Jan-19 17:56N 37°55' E 015°40'4 8.9
2018-Jan-19 17:29N 37°58' E 015°36'5 9.9
2018-Jan-19 16:57N 38°03' E 015°35'611.0
2018-Jan-19 16:27N 38°08' E 015°35'511.1
2018-Jan-19 16:01N 38°13' E 015°36'4 7.6
2018-Jan-19 15:29N 38°17' E 015°39'4 8.8
2018-Jan-19 15:00N 38°19' E 015°35'4 8.4
2018-Jan-19 14:31N 38°19' E 015°30'4 8.6
2018-Jan-19 14:00N 38°19' E 015°24'4 9.0
2018-Jan-19 13:31N 38°19' E 015°18'5 9.2
2018-Jan-19 13:01N 38°19' E 015°12'5 9.1
2018-Jan-19 12:31N 38°19' E 015°07'5 9.4
2018-Jan-19 11:59N 38°19' E 015°00'4 9.1
2018-Jan-19 11:30N 38°19' E 014°55'4 8.9
2018-Jan-19 11:01N 38°18' E 014°49'34 9.2
2018-Jan-19 07:18N 38°18' E 014°06'5 9.3
2018-Jan-19 06:46N 38°18' E 013°59'2 9.5
2018-Jan-19 06:30N 38°18' E 013°56'5 9.4
2018-Jan-19 05:57N 38°18' E 013°50'4 9.3
2018-Jan-19 05:30N 38°19' E 013°44'5 9.3
2018-Jan-19 05:00N 38°19' E 013°38'5 9.4
2018-Jan-19 04:30N 38°19' E 013°32'5 9.4
2018-Jan-19 04:00N 38°20' E 013°26'5 9.3
2018-Jan-19 03:30N 38°20' E 013°20'5 9.4
2018-Jan-19 03:00N 38°21' E 013°15'5 9.1
2018-Jan-19 02:30N 38°21' E 013°09'4 8.9
2018-Jan-19 02:00N 38°22' E 013°03'4 8.7
2018-Jan-19 01:30N 38°22' E 012°58'197 8.7
2018-Jan-18 02:56N 38°46' E 008°47'  

Dump ship's entire track history